sensor_id;sensor_type;location;lat;lon;timestamp;pressure;altitude;pressure_sealevel;temperature;humidity
75290;BME280;63883;48.996;20.804;2023-07-30T00:01:32;96148.56;;;14.49;100.00
75290;BME280;63883;48.996;20.804;2023-07-30T00:03:59;96149.31;;;14.51;100.00
75290;BME280;63883;48.996;20.804;2023-07-30T00:06:24;96146.00;;;14.49;100.00
75290;BME280;63883;48.996;20.804;2023-07-30T00:08:50;96152.25;;;14.43;100.00
75290;BME280;63883;48.996;20.804;2023-07-30T00:11:16;96161.13;;;14.55;100.00
75290;BME280;63883;48.996;20.804;2023-07-30T00:13:43;96164.66;;;14.52;100.00
75290;BME280;63883;48.996;20.804;2023-07-30T00:16:09;96160.66;;;14.47;100.00
75290;BME280;63883;48.996;20.804;2023-07-30T00:18:34;96153.34;;;14.39;100.00
75290;BME280;63883;48.996;20.804;2023-07-30T00:21:00;96146.19;;;14.27;100.00
75290;BME280;63883;48.996;20.804;2023-07-30T00:23:26;96134.50;;;14.21;100.00
75290;BME280;63883;48.996;20.804;2023-07-30T00:25:51;96129.59;;;14.17;100.00
75290;BME280;63883;48.996;20.804;2023-07-30T00:28:17;96127.22;;;14.12;100.00
75290;BME280;63883;48.996;20.804;2023-07-30T00:30:43;96115.41;;;14.10;100.00
75290;BME280;63883;48.996;20.804;2023-07-30T00:33:09;96121.19;;;14.13;100.00
75290;BME280;63883;48.996;20.804;2023-07-30T00:35:34;96124.78;;;14.11;100.00
75290;BME280;63883;48.996;20.804;2023-07-30T00:38:00;96120.47;;;14.11;100.00
75290;BME280;63883;48.996;20.804;2023-07-30T00:40:26;96116.00;;;14.15;100.00
75290;BME280;63883;48.996;20.804;2023-07-30T00:42:51;96111.78;;;14.14;100.00
75290;BME280;63883;48.996;20.804;2023-07-30T00:45:17;96107.66;;;14.11;100.00
75290;BME280;63883;48.996;20.804;2023-07-30T00:47:43;96110.13;;;14.13;100.00
75290;BME280;63883;48.996;20.804;2023-07-30T00:50:10;96099.59;;;14.19;100.00
75290;BME280;63883;48.996;20.804;2023-07-30T00:52:38;96110.38;;;14.25;100.00
75290;BME280;63883;48.996;20.804;2023-07-30T00:55:04;96115.41;;;14.27;100.00
75290;BME280;63883;48.996;20.804;2023-07-30T00:57:32;96104.47;;;14.23;100.00
75290;BME280;63883;48.996;20.804;2023-07-30T00:59:58;96111.88;;;14.29;100.00
75290;BME280;63883;48.996;20.804;2023-07-30T01:02:24;96108.47;;;14.29;100.00
75290;BME280;63883;48.996;20.804;2023-07-30T01:04:51;96102.28;;;14.33;100.00
75290;BME280;63883;48.996;20.804;2023-07-30T01:07:17;96104.63;;;14.37;100.00
75290;BME280;63883;48.996;20.804;2023-07-30T01:09:43;96103.56;;;14.41;100.00
75290;BME280;63883;48.996;20.804;2023-07-30T01:12:09;96114.53;;;14.45;100.00
75290;BME280;63883;48.996;20.804;2023-07-30T01:14:35;96116.56;;;14.38;100.00
75290;BME280;63883;48.996;20.804;2023-07-30T01:17:04;96120.91;;;14.36;100.00
75290;BME280;63883;48.996;20.804;2023-07-30T01:19:30;96122.38;;;14.42;100.00
75290;BME280;63883;48.996;20.804;2023-07-30T01:21:56;96124.81;;;14.45;100.00
75290;BME280;63883;48.996;20.804;2023-07-30T01:24:21;96131.22;;;14.54;100.00
75290;BME280;63883;48.996;20.804;2023-07-30T01:27:01;96130.13;;;14.58;100.00
75290;BME280;63883;48.996;20.804;2023-07-30T01:29:28;96138.66;;;14.58;100.00
75290;BME280;63883;48.996;20.804;2023-07-30T01:32:02;96134.69;;;14.53;100.00
75290;BME280;63883;48.996;20.804;2023-07-30T01:34:31;96135.66;;;14.50;100.00
75290;BME280;63883;48.996;20.804;2023-07-30T01:37:00;96133.34;;;14.45;100.00
75290;BME280;63883;48.996;20.804;2023-07-30T01:39:27;96143.28;;;14.52;100.00
75290;BME280;63883;48.996;20.804;2023-07-30T01:41:54;96135.66;;;14.50;100.00
75290;BME280;63883;48.996;20.804;2023-07-30T01:44:20;96137.84;;;14.58;100.00
75290;BME280;63883;48.996;20.804;2023-07-30T01:46:46;96144.94;;;14.53;100.00
75290;BME280;63883;48.996;20.804;2023-07-30T01:49:11;96146.09;;;14.47;100.00
75290;BME280;63883;48.996;20.804;2023-07-30T01:51:37;96142.00;;;14.43;100.00
75290;BME280;63883;48.996;20.804;2023-07-30T01:54:03;96148.72;;;14.45;100.00
75290;BME280;63883;48.996;20.804;2023-07-30T01:56:28;96145.63;;;14.39;100.00
75290;BME280;63883;48.996;20.804;2023-07-30T01:58:54;96151.66;;;14.38;100.00
75290;BME280;63883;48.996;20.804;2023-07-30T02:01:20;96158.88;;;14.30;100.00
75290;BME280;63883;48.996;20.804;2023-07-30T02:03:45;96151.53;;;14.22;100.00
75290;BME280;63883;48.996;20.804;2023-07-30T02:06:11;96155.19;;;14.18;100.00
75290;BME280;63883;48.996;20.804;2023-07-30T02:08:37;96146.94;;;14.12;100.00
75290;BME280;63883;48.996;20.804;2023-07-30T02:11:03;96145.41;;;14.07;100.00
75290;BME280;63883;48.996;20.804;2023-07-30T02:13:29;96139.47;;;14.07;100.00
75290;BME280;63883;48.996;20.804;2023-07-30T02:15:55;96131.16;;;14.19;100.00
75290;BME280;63883;48.996;20.804;2023-07-30T02:18:20;96129.22;;;14.24;100.00
75290;BME280;63883;48.996;20.804;2023-07-30T02:20:46;96125.81;;;14.24;100.00
75290;BME280;63883;48.996;20.804;2023-07-30T02:23:14;96127.19;;;14.31;100.00
75290;BME280;63883;48.996;20.804;2023-07-30T02:25:41;96131.13;;;14.38;100.00
75290;BME280;63883;48.996;20.804;2023-07-30T02:28:07;96141.94;;;14.44;100.00
75290;BME280;63883;48.996;20.804;2023-07-30T02:30:33;96136.72;;;14.46;100.00
75290;BME280;63883;48.996;20.804;2023-07-30T02:32:59;96142.91;;;14.42;100.00
75290;BME280;63883;48.996;20.804;2023-07-30T02:35:25;96129.44;;;14.37;100.00
75290;BME280;63883;48.996;20.804;2023-07-30T02:37:51;96119.25;;;14.35;100.00
75290;BME280;63883;48.996;20.804;2023-07-30T02:40:17;96111.03;;;14.29;100.00
75290;BME280;63883;48.996;20.804;2023-07-30T02:42:42;96120.53;;;14.27;100.00
75290;BME280;63883;48.996;20.804;2023-07-30T02:45:08;96117.22;;;14.25;100.00
75290;BME280;63883;48.996;20.804;2023-07-30T02:47:34;96127.94;;;14.33;100.00
75290;BME280;63883;48.996;20.804;2023-07-30T02:49:59;96139.59;;;14.40;100.00
75290;BME280;63883;48.996;20.804;2023-07-30T02:52:25;96119.97;;;14.39;100.00
75290;BME280;63883;48.996;20.804;2023-07-30T02:54:51;96117.41;;;14.39;100.00
75290;BME280;63883;48.996;20.804;2023-07-30T02:57:17;96124.22;;;14.40;100.00
75290;BME280;63883;48.996;20.804;2023-07-30T02:59:42;96134.28;;;14.43;100.00
75290;BME280;63883;48.996;20.804;2023-07-30T03:02:08;96122.53;;;14.39;100.00
75290;BME280;63883;48.996;20.804;2023-07-30T03:04:34;96130.16;;;14.40;100.00
75290;BME280;63883;48.996;20.804;2023-07-30T03:07:00;96141.41;;;14.38;100.00
75290;BME280;63883;48.996;20.804;2023-07-30T03:09:27;96130.97;;;14.41;100.00
75290;BME280;63883;48.996;20.804;2023-07-30T03:11:53;96133.75;;;14.36;100.00
75290;BME280;63883;48.996;20.804;2023-07-30T03:14:19;96137.44;;;14.31;100.00
75290;BME280;63883;48.996;20.804;2023-07-30T03:16:49;96130.78;;;14.27;100.00
75290;BME280;63883;48.996;20.804;2023-07-30T03:19:15;96135.91;;;14.27;100.00
75290;BME280;63883;48.996;20.804;2023-07-30T03:21:41;96139.31;;;14.27;100.00
75290;BME280;63883;48.996;20.804;2023-07-30T03:24:07;96137.13;;;14.37;100.00
75290;BME280;63883;48.996;20.804;2023-07-30T03:26:32;96131.47;;;14.30;100.00
75290;BME280;63883;48.996;20.804;2023-07-30T03:28:58;96151.31;;;14.27;100.00
75290;BME280;63883;48.996;20.804;2023-07-30T03:31:24;96162.63;;;14.23;100.00
75290;BME280;63883;48.996;20.804;2023-07-30T03:33:50;96157.81;;;14.17;100.00
75290;BME280;63883;48.996;20.804;2023-07-30T03:36:15;96156.28;;;14.13;100.00
75290;BME280;63883;48.996;20.804;2023-07-30T03:38:42;96168.00;;;14.18;100.00
75290;BME280;63883;48.996;20.804;2023-07-30T03:41:09;96168.53;;;14.25;100.00
75290;BME280;63883;48.996;20.804;2023-07-30T03:43:35;96161.56;;;14.27;100.00
75290;BME280;63883;48.996;20.804;2023-07-30T03:46:01;96163.25;;;14.28;100.00
75290;BME280;63883;48.996;20.804;2023-07-30T03:48:27;96168.06;;;14.34;100.00
75290;BME280;63883;48.996;20.804;2023-07-30T03:50:53;96165.91;;;14.26;100.00
75290;BME280;63883;48.996;20.804;2023-07-30T03:53:19;96176.06;;;14.28;100.00
75290;BME280;63883;48.996;20.804;2023-07-30T03:55:45;96172.66;;;14.27;100.00
75290;BME280;63883;48.996;20.804;2023-07-30T03:58:11;96172.59;;;14.29;100.00
75290;BME280;63883;48.996;20.804;2023-07-30T04:00:37;96169.44;;;14.24;100.00
75290;BME280;63883;48.996;20.804;2023-07-30T04:03:03;96173.97;;;14.36;100.00
75290;BME280;63883;48.996;20.804;2023-07-30T04:05:30;96184.59;;;14.47;100.00
75290;BME280;63883;48.996;20.804;2023-07-30T04:07:56;96176.41;;;14.56;100.00
75290;BME280;63883;48.996;20.804;2023-07-30T04:10:21;96175.97;;;14.65;100.00
75290;BME280;63883;48.996;20.804;2023-07-30T04:12:47;96175.97;;;14.65;100.00
75290;BME280;63883;48.996;20.804;2023-07-30T04:15:14;96184.94;;;14.74;100.00
75290;BME280;63883;48.996;20.804;2023-07-30T04:17:41;96183.88;;;14.78;100.00
75290;BME280;63883;48.996;20.804;2023-07-30T04:20:07;96180.03;;;14.87;100.00
75290;BME280;63883;48.996;20.804;2023-07-30T04:22:35;96176.22;;;14.94;100.00
75290;BME280;63883;48.996;20.804;2023-07-30T04:25:01;96189.53;;;15.02;100.00
75290;BME280;63883;48.996;20.804;2023-07-30T04:27:27;96191.25;;;15.01;100.00
75290;BME280;63883;48.996;20.804;2023-07-30T04:29:53;96191.19;;;15.03;100.00
75290;BME280;63883;48.996;20.804;2023-07-30T04:32:18;96189.97;;;15.10;100.00
75290;BME280;63883;48.996;20.804;2023-07-30T04:34:44;96186.53;;;15.27;100.00
75290;BME280;63883;48.996;20.804;2023-07-30T04:37:10;96186.72;;;15.39;100.00
75290;BME280;63883;48.996;20.804;2023-07-30T04:39:36;96193.75;;;15.51;100.00
75290;BME280;63883;48.996;20.804;2023-07-30T04:42:02;96195.31;;;15.55;100.00
75290;BME280;63883;48.996;20.804;2023-07-30T04:44:28;96197.13;;;15.53;100.00
75290;BME280;63883;48.996;20.804;2023-07-30T04:46:54;96204.50;;;15.59;100.00
75290;BME280;63883;48.996;20.804;2023-07-30T04:49:20;96190.25;;;15.70;100.00
75290;BME280;63883;48.996;20.804;2023-07-30T04:51:45;96200.78;;;15.65;100.00
75290;BME280;63883;48.996;20.804;2023-07-30T04:54:11;96197.16;;;15.69;100.00
75290;BME280;63883;48.996;20.804;2023-07-30T04:56:37;96185.69;;;15.75;100.00
75290;BME280;63883;48.996;20.804;2023-07-30T04:59:03;96186.03;;;15.84;100.00
75290;BME280;63883;48.996;20.804;2023-07-30T05:01:29;96193.34;;;15.92;100.00
75290;BME280;63883;48.996;20.804;2023-07-30T05:03:54;96195.31;;;16.02;100.00
75290;BME280;63883;48.996;20.804;2023-07-30T05:06:20;96194.31;;;16.05;100.00
75290;BME280;63883;48.996;20.804;2023-07-30T05:08:46;96197.47;;;16.10;100.00
75290;BME280;63883;48.996;20.804;2023-07-30T05:11:12;96201.34;;;16.01;100.00
75290;BME280;63883;48.996;20.804;2023-07-30T05:13:37;96207.91;;;16.07;100.00
75290;BME280;63883;48.996;20.804;2023-07-30T05:16:03;96207.75;;;16.10;100.00
75290;BME280;63883;48.996;20.804;2023-07-30T05:18:29;96203.25;;;16.14;100.00
75290;BME280;63883;48.996;20.804;2023-07-30T05:20:55;96209.81;;;16.19;100.00
75290;BME280;63883;48.996;20.804;2023-07-30T05:23:21;96208.91;;;16.20;100.00
75290;BME280;63883;48.996;20.804;2023-07-30T05:25:46;96207.19;;;16.21;100.00
75290;BME280;63883;48.996;20.804;2023-07-30T05:28:12;96208.16;;;16.18;100.00
75290;BME280;63883;48.996;20.804;2023-07-30T05:30:38;96206.91;;;16.25;100.00
75290;BME280;63883;48.996;20.804;2023-07-30T05:33:04;96209.81;;;16.35;100.00
75290;BME280;63883;48.996;20.804;2023-07-30T05:35:30;96203.41;;;16.42;100.00
75290;BME280;63883;48.996;20.804;2023-07-30T05:37:55;96201.31;;;16.49;100.00
75290;BME280;63883;48.996;20.804;2023-07-30T05:40:21;96200.56;;;16.47;100.00
75290;BME280;63883;48.996;20.804;2023-07-30T05:42:47;96202.03;;;16.51;100.00
75290;BME280;63883;48.996;20.804;2023-07-30T05:45:13;96201.88;;;16.54;100.00
75290;BME280;63883;48.996;20.804;2023-07-30T05:47:38;96212.75;;;16.43;100.00
75290;BME280;63883;48.996;20.804;2023-07-30T05:50:06;96207.38;;;16.48;100.00
75290;BME280;63883;48.996;20.804;2023-07-30T05:52:32;96206.09;;;16.55;100.00
75290;BME280;63883;48.996;20.804;2023-07-30T05:54:58;96211.69;;;16.63;100.00
75290;BME280;63883;48.996;20.804;2023-07-30T05:57:24;96216.13;;;16.75;100.00
75290;BME280;63883;48.996;20.804;2023-07-30T05:59:50;96218.28;;;16.97;100.00
75290;BME280;63883;48.996;20.804;2023-07-30T06:02:15;96208.34;;;16.91;100.00
75290;BME280;63883;48.996;20.804;2023-07-30T06:04:41;96226.41;;;17.19;100.00
75290;BME280;63883;48.996;20.804;2023-07-30T06:07:07;96222.84;;;17.36;100.00
75290;BME280;63883;48.996;20.804;2023-07-30T06:09:33;96223.19;;;17.58;100.00
75290;BME280;63883;48.996;20.804;2023-07-30T06:11:58;96222.44;;;17.99;99.51
75290;BME280;63883;48.996;20.804;2023-07-30T06:14:25;96216.56;;;18.23;99.01
75290;BME280;63883;48.996;20.804;2023-07-30T06:16:52;96216.34;;;18.53;96.79
75290;BME280;63883;48.996;20.804;2023-07-30T06:19:18;96209.97;;;18.86;94.94
75290;BME280;63883;48.996;20.804;2023-07-30T06:21:43;96208.94;;;19.01;95.14
75290;BME280;63883;48.996;20.804;2023-07-30T06:24:09;96211.44;;;19.15;93.16
75290;BME280;63883;48.996;20.804;2023-07-30T06:26:35;96209.34;;;19.33;91.64
75290;BME280;63883;48.996;20.804;2023-07-30T06:29:01;96205.31;;;19.54;90.45
75290;BME280;63883;48.996;20.804;2023-07-30T06:31:27;96206.44;;;19.63;87.97
75290;BME280;63883;48.996;20.804;2023-07-30T06:33:52;96202.31;;;19.73;88.18
75290;BME280;63883;48.996;20.804;2023-07-30T06:36:18;96199.59;;;19.87;86.01
75290;BME280;63883;48.996;20.804;2023-07-30T06:38:44;96197.81;;;20.11;83.94
75290;BME280;63883;48.996;20.804;2023-07-30T06:41:09;96197.28;;;20.19;84.86
75290;BME280;63883;48.996;20.804;2023-07-30T06:43:35;96201.72;;;20.30;83.81
75290;BME280;63883;48.996;20.804;2023-07-30T06:46:01;96196.88;;;20.49;83.04
75290;BME280;63883;48.996;20.804;2023-07-30T06:48:27;96191.13;;;20.56;82.24
75290;BME280;63883;48.996;20.804;2023-07-30T06:50:52;96194.09;;;20.63;83.91
75290;BME280;63883;48.996;20.804;2023-07-30T06:53:18;96191.56;;;20.74;82.88
75290;BME280;63883;48.996;20.804;2023-07-30T06:55:44;96197.69;;;20.84;81.89
75290;BME280;63883;48.996;20.804;2023-07-30T06:58:10;96200.75;;;20.89;79.29
75290;BME280;63883;48.996;20.804;2023-07-30T07:00:36;96200.66;;;20.91;82.89
75290;BME280;63883;48.996;20.804;2023-07-30T07:03:02;96196.13;;;20.71;84.34
75290;BME280;63883;48.996;20.804;2023-07-30T07:05:27;96193.44;;;20.72;84.44
75290;BME280;63883;48.996;20.804;2023-07-30T07:07:53;96189.38;;;20.68;85.44
75290;BME280;63883;48.996;20.804;2023-07-30T07:10:19;96183.97;;;20.60;85.45
75290;BME280;63883;48.996;20.804;2023-07-30T07:12:44;96190.47;;;20.65;86.27
75290;BME280;63883;48.996;20.804;2023-07-30T07:15:10;96186.75;;;20.81;83.97
75290;BME280;63883;48.996;20.804;2023-07-30T07:17:36;96195.56;;;20.89;83.72
75290;BME280;63883;48.996;20.804;2023-07-30T07:20:02;96186.44;;;21.08;83.95
75290;BME280;63883;48.996;20.804;2023-07-30T07:22:30;96193.31;;;21.20;82.41
75290;BME280;63883;48.996;20.804;2023-07-30T07:24:56;96187.44;;;21.29;82.49
75290;BME280;63883;48.996;20.804;2023-07-30T07:27:22;96194.03;;;21.55;80.68
75290;BME280;63883;48.996;20.804;2023-07-30T07:29:50;96187.91;;;21.67;79.06
75290;BME280;63883;48.996;20.804;2023-07-30T07:32:16;96188.97;;;21.87;78.18
75290;BME280;63883;48.996;20.804;2023-07-30T07:34:41;96190.28;;;22.04;76.41
75290;BME280;63883;48.996;20.804;2023-07-30T07:37:10;96186.91;;;22.13;73.86
75290;BME280;63883;48.996;20.804;2023-07-30T07:39:36;96180.16;;;22.33;72.79
75290;BME280;63883;48.996;20.804;2023-07-30T07:42:02;96179.56;;;22.61;73.15
75290;BME280;63883;48.996;20.804;2023-07-30T07:44:27;96171.41;;;22.86;70.64
75290;BME280;63883;48.996;20.804;2023-07-30T07:46:53;96174.56;;;23.31;68.02
75290;BME280;63883;48.996;20.804;2023-07-30T07:49:18;96161.53;;;23.52;66.88
75290;BME280;63883;48.996;20.804;2023-07-30T07:51:44;96169.69;;;23.78;65.33
75290;BME280;63883;48.996;20.804;2023-07-30T07:54:10;96166.44;;;23.95;65.53
75290;BME280;63883;48.996;20.804;2023-07-30T07:56:35;96164.13;;;24.02;63.54
75290;BME280;63883;48.996;20.804;2023-07-30T07:59:01;96165.50;;;23.96;63.03
75290;BME280;63883;48.996;20.804;2023-07-30T08:01:27;96161.66;;;24.00;62.88
75290;BME280;63883;48.996;20.804;2023-07-30T08:03:52;96155.75;;;24.08;64.18
75290;BME280;63883;48.996;20.804;2023-07-30T08:06:18;96157.00;;;24.13;61.30
75290;BME280;63883;48.996;20.804;2023-07-30T08:08:43;96162.88;;;23.96;61.17
75290;BME280;63883;48.996;20.804;2023-07-30T08:11:09;96151.31;;;23.80;61.78
75290;BME280;63883;48.996;20.804;2023-07-30T08:13:35;96161.03;;;23.78;61.02
75290;BME280;63883;48.996;20.804;2023-07-30T08:16:02;96163.41;;;23.50;62.13
75290;BME280;63883;48.996;20.804;2023-07-30T08:18:28;96168.06;;;23.47;62.06
75290;BME280;63883;48.996;20.804;2023-07-30T08:20:54;96167.81;;;23.50;62.51
75290;BME280;63883;48.996;20.804;2023-07-30T08:23:19;96170.34;;;23.40;62.65
75290;BME280;63883;48.996;20.804;2023-07-30T08:25:45;96164.25;;;23.51;62.12
75290;BME280;63883;48.996;20.804;2023-07-30T08:28:11;96168.94;;;23.57;62.69
75290;BME280;63883;48.996;20.804;2023-07-30T08:30:36;96175.38;;;23.53;62.97
75290;BME280;63883;48.996;20.804;2023-07-30T08:33:02;96177.06;;;23.43;62.99
75290;BME280;63883;48.996;20.804;2023-07-30T08:35:28;96175.84;;;23.47;62.62
75290;BME280;63883;48.996;20.804;2023-07-30T08:37:54;96180.16;;;23.48;62.93
75290;BME280;63883;48.996;20.804;2023-07-30T08:40:21;96178.66;;;23.55;62.87
75290;BME280;63883;48.996;20.804;2023-07-30T08:42:53;96178.38;;;23.58;63.82
75290;BME280;63883;48.996;20.804;2023-07-30T08:45:19;96173.47;;;23.64;62.88
75290;BME280;63883;48.996;20.804;2023-07-30T08:47:45;96181.09;;;23.77;62.38
75290;BME280;63883;48.996;20.804;2023-07-30T08:50:12;96184.09;;;23.82;62.01
75290;BME280;63883;48.996;20.804;2023-07-30T08:52:38;96185.59;;;23.85;61.45
75290;BME280;63883;48.996;20.804;2023-07-30T08:55:06;96185.19;;;23.80;61.94
75290;BME280;63883;48.996;20.804;2023-07-30T08:57:32;96179.44;;;23.76;62.56
75290;BME280;63883;48.996;20.804;2023-07-30T09:00:11;96182.25;;;24.03;62.83
75290;BME280;63883;48.996;20.804;2023-07-30T09:02:47;96183.94;;;24.24;62.42
75290;BME280;63883;48.996;20.804;2023-07-30T09:05:14;96180.91;;;24.19;61.12
75290;BME280;63883;48.996;20.804;2023-07-30T09:07:39;96188.56;;;24.10;60.66
75290;BME280;63883;48.996;20.804;2023-07-30T09:10:06;96183.97;;;24.33;59.71
75290;BME280;63883;48.996;20.804;2023-07-30T09:12:32;96191.94;;;24.70;59.73
75290;BME280;63883;48.996;20.804;2023-07-30T09:14:58;96182.03;;;24.83;58.19
75290;BME280;63883;48.996;20.804;2023-07-30T09:17:24;96179.44;;;24.93;57.76
75290;BME280;63883;48.996;20.804;2023-07-30T09:19:52;96176.75;;;25.22;56.85
75290;BME280;63883;48.996;20.804;2023-07-30T09:22:24;96185.28;;;25.24;56.07
75290;BME280;63883;48.996;20.804;2023-07-30T09:24:50;96177.81;;;25.39;55.26
75290;BME280;63883;48.996;20.804;2023-07-30T09:27:20;96187.25;;;25.59;54.72
75290;BME280;63883;48.996;20.804;2023-07-30T09:29:53;96181.06;;;25.50;54.54
75290;BME280;63883;48.996;20.804;2023-07-30T09:32:19;96173.97;;;25.80;53.82
75290;BME280;63883;48.996;20.804;2023-07-30T09:34:45;96186.66;;;26.02;51.65
75290;BME280;63883;48.996;20.804;2023-07-30T09:37:12;96169.63;;;25.98;51.61
75290;BME280;63883;48.996;20.804;2023-07-30T09:39:38;96174.56;;;26.28;51.42
75290;BME280;63883;48.996;20.804;2023-07-30T09:42:05;96168.50;;;26.46;50.07
75290;BME280;63883;48.996;20.804;2023-07-30T09:44:32;96179.72;;;26.91;49.31
75290;BME280;63883;48.996;20.804;2023-07-30T09:47:00;96171.00;;;27.08;47.08
75290;BME280;63883;48.996;20.804;2023-07-30T09:49:31;96169.69;;;27.30;47.50
75290;BME280;63883;48.996;20.804;2023-07-30T09:52:00;96174.25;;;27.88;47.77
75290;BME280;63883;48.996;20.804;2023-07-30T09:54:27;96175.50;;;27.76;43.70
75290;BME280;63883;48.996;20.804;2023-07-30T09:56:53;96168.31;;;27.26;44.96
75290;BME280;63883;48.996;20.804;2023-07-30T09:59:18;96170.13;;;27.51;45.31
75290;BME280;63883;48.996;20.804;2023-07-30T10:01:46;96163.44;;;27.91;43.45
75290;BME280;63883;48.996;20.804;2023-07-30T10:04:15;96162.22;;;27.77;45.18
75290;BME280;63883;48.996;20.804;2023-07-30T10:09:17;96156.91;;;28.03;43.89
75290;BME280;63883;48.996;20.804;2023-07-30T10:11:45;96154.03;;;28.22;43.68
75290;BME280;63883;48.996;20.804;2023-07-30T10:14:12;96153.66;;;28.09;43.98
75290;BME280;63883;48.996;20.804;2023-07-30T10:16:38;96150.25;;;28.25;42.37
75290;BME280;63883;48.996;20.804;2023-07-30T10:19:04;96145.84;;;27.83;43.41
75290;BME280;63883;48.996;20.804;2023-07-30T10:21:32;96144.56;;;27.79;42.70
75290;BME280;63883;48.996;20.804;2023-07-30T10:24:02;96147.56;;;28.01;44.41
75290;BME280;63883;48.996;20.804;2023-07-30T10:26:33;96149.59;;;27.73;43.29
75290;BME280;63883;48.996;20.804;2023-07-30T10:29:19;96149.00;;;27.27;45.23
75290;BME280;63883;48.996;20.804;2023-07-30T10:31:52;96141.31;;;27.26;44.80
75290;BME280;63883;48.996;20.804;2023-07-30T10:34:18;96142.78;;;26.94;46.53
75290;BME280;63883;48.996;20.804;2023-07-30T10:36:46;96141.66;;;26.87;46.47
75290;BME280;63883;48.996;20.804;2023-07-30T10:39:18;96136.63;;;26.68;47.88
75290;BME280;63883;48.996;20.804;2023-07-30T10:41:49;96135.75;;;26.59;48.46
75290;BME280;63883;48.996;20.804;2023-07-30T10:46:49;96127.66;;;25.72;51.73
75290;BME280;63883;48.996;20.804;2023-07-30T10:49:14;96125.69;;;25.47;51.52
75290;BME280;63883;48.996;20.804;2023-07-30T10:51:40;96133.03;;;25.34;50.34
75290;BME280;63883;48.996;20.804;2023-07-30T10:54:06;96134.47;;;25.18;51.07
75290;BME280;63883;48.996;20.804;2023-07-30T10:56:36;96135.28;;;25.19;52.62
75290;BME280;63883;48.996;20.804;2023-07-30T10:59:04;96132.13;;;25.15;53.27
75290;BME280;63883;48.996;20.804;2023-07-30T11:01:31;96133.13;;;25.05;53.28
75290;BME280;63883;48.996;20.804;2023-07-30T11:03:56;96140.56;;;25.00;53.68
75290;BME280;63883;48.996;20.804;2023-07-30T11:06:26;96133.44;;;24.73;55.39
75290;BME280;63883;48.996;20.804;2023-07-30T11:08:52;96129.34;;;24.61;56.47
75290;BME280;63883;48.996;20.804;2023-07-30T11:11:18;96134.13;;;24.36;58.74
75290;BME280;63883;48.996;20.804;2023-07-30T11:13:45;96138.34;;;24.08;59.93
75290;BME280;63883;48.996;20.804;2023-07-30T11:16:12;96141.50;;;24.02;59.96
75290;BME280;63883;48.996;20.804;2023-07-30T11:18:39;96149.31;;;24.02;59.94
75290;BME280;63883;48.996;20.804;2023-07-30T11:21:09;96144.34;;;23.90;62.54
75290;BME280;63883;48.996;20.804;2023-07-30T11:23:37;96149.88;;;23.56;63.02
75290;BME280;63883;48.996;20.804;2023-07-30T11:26:05;96144.66;;;23.56;63.81
75290;BME280;63883;48.996;20.804;2023-07-30T11:28:35;96148.25;;;23.65;63.03
75290;BME280;63883;48.996;20.804;2023-07-30T11:31:09;96151.50;;;23.27;61.97
75290;BME280;63883;48.996;20.804;2023-07-30T11:33:40;96149.91;;;23.35;62.82
75290;BME280;63883;48.996;20.804;2023-07-30T11:36:07;96147.59;;;23.42;62.54
75290;BME280;63883;48.996;20.804;2023-07-30T11:38:34;96155.28;;;23.44;63.53
75290;BME280;63883;48.996;20.804;2023-07-30T11:41:00;96154.81;;;23.29;61.96
75290;BME280;63883;48.996;20.804;2023-07-30T11:43:27;96156.22;;;23.43;60.25
75290;BME280;63883;48.996;20.804;2023-07-30T11:46:17;96157.13;;;23.53;56.61
75290;BME280;63883;48.996;20.804;2023-07-30T11:48:53;96150.63;;;23.17;59.80
75290;BME280;63883;48.996;20.804;2023-07-30T11:51:35;96154.44;;;23.43;56.52
75290;BME280;63883;48.996;20.804;2023-07-30T11:54:01;96159.75;;;23.53;57.50
75290;BME280;63883;48.996;20.804;2023-07-30T11:56:29;96152.19;;;23.50;56.52
75290;BME280;63883;48.996;20.804;2023-07-30T11:59:05;96158.66;;;23.34;56.02
75290;BME280;63883;48.996;20.804;2023-07-30T12:01:32;96166.03;;;23.29;57.16
75290;BME280;63883;48.996;20.804;2023-07-30T12:04:01;96164.59;;;23.16;56.42
75290;BME280;63883;48.996;20.804;2023-07-30T12:11:56;96170.56;;;23.07;57.93
75290;BME280;63883;48.996;20.804;2023-07-30T12:14:28;96174.13;;;23.06;57.62
75290;BME280;63883;48.996;20.804;2023-07-30T12:17:01;96183.72;;;22.84;57.47
75290;BME280;63883;48.996;20.804;2023-07-30T12:19:27;96181.19;;;22.73;57.52
75290;BME280;63883;48.996;20.804;2023-07-30T12:21:53;96179.88;;;22.68;58.48
75290;BME280;63883;48.996;20.804;2023-07-30T12:24:19;96189.75;;;22.53;58.16
75290;BME280;63883;48.996;20.804;2023-07-30T12:26:45;96190.81;;;22.50;59.39
75290;BME280;63883;48.996;20.804;2023-07-30T12:29:10;96187.34;;;22.40;58.99
75290;BME280;63883;48.996;20.804;2023-07-30T12:31:36;96195.66;;;22.23;62.19
75290;BME280;63883;48.996;20.804;2023-07-30T12:34:02;96189.13;;;22.29;63.16
75290;BME280;63883;48.996;20.804;2023-07-30T12:36:28;96188.56;;;22.25;62.66
75290;BME280;63883;48.996;20.804;2023-07-30T12:38:54;96196.09;;;22.28;63.49
75290;BME280;63883;48.996;20.804;2023-07-30T12:41:20;96192.75;;;22.37;63.39
75290;BME280;63883;48.996;20.804;2023-07-30T12:43:55;96193.53;;;22.49;63.34
75290;BME280;63883;48.996;20.804;2023-07-30T12:46:24;96196.72;;;22.52;64.18
75290;BME280;63883;48.996;20.804;2023-07-30T12:48:52;96200.28;;;22.51;62.24
75290;BME280;63883;48.996;20.804;2023-07-30T12:51:18;96199.63;;;22.38;61.94
75290;BME280;63883;48.996;20.804;2023-07-30T12:53:44;96201.47;;;22.47;61.54